sensor_id;sensor_type;location;lat;lon;timestamp;temperature;humidity
27314;DHT22;14800;48.174;9.798;2022-11-03T00:00:59;8.80;82.60
27314;DHT22;14800;48.174;9.798;2022-11-03T00:03:25;8.80;82.90
27314;DHT22;14800;48.174;9.798;2022-11-03T00:05:51;8.70;83.00
27314;DHT22;14800;48.174;9.798;2022-11-03T00:08:36;8.80;83.10
27314;DHT22;14800;48.174;9.798;2022-11-03T00:11:13;8.80;83.00
27314;DHT22;14800;48.174;9.798;2022-11-03T00:13:42;8.80;83.40
27314;DHT22;14800;48.174;9.798;2022-11-03T00:16:10;8.70;83.40
27314;DHT22;14800;48.174;9.798;2022-11-03T00:18:37;8.70;83.60
27314;DHT22;14800;48.174;9.798;2022-11-03T00:21:05;8.70;83.80
27314;DHT22;14800;48.174;9.798;2022-11-03T00:23:33;8.70;84.60
27314;DHT22;14800;48.174;9.798;2022-11-03T00:26:07;8.70;83.80
27314;DHT22;14800;48.174;9.798;2022-11-03T00:28:34;8.60;84.10
27314;DHT22;14800;48.174;9.798;2022-11-03T00:31:00;8.60;84.00
27314;DHT22;14800;48.174;9.798;2022-11-03T00:33:33;8.60;84.30
27314;DHT22;14800;48.174;9.798;2022-11-03T00:35:59;8.60;84.60
27314;DHT22;14800;48.174;9.798;2022-11-03T00:38:26;8.60;84.60
27314;DHT22;14800;48.174;9.798;2022-11-03T00:40:59;8.70;84.70
27314;DHT22;14800;48.174;9.798;2022-11-03T00:43:27;8.70;84.80
27314;DHT22;14800;48.174;9.798;2022-11-03T00:45:53;8.70;84.80
27314;DHT22;14800;48.174;9.798;2022-11-03T00:48:20;8.70;84.90
27314;DHT22;14800;48.174;9.798;2022-11-03T00:56:18;8.80;85.00
27314;DHT22;14800;48.174;9.798;2022-11-03T00:58:44;8.80;84.80
27314;DHT22;14800;48.174;9.798;2022-11-03T01:01:12;8.80;84.80
27314;DHT22;14800;48.174;9.798;2022-11-03T01:03:40;8.80;84.90
27314;DHT22;14800;48.174;9.798;2022-11-03T01:06:08;8.80;85.00
27314;DHT22;14800;48.174;9.798;2022-11-03T01:08:52;8.80;85.00
27314;DHT22;14800;48.174;9.798;2022-11-03T01:11:20;8.70;85.00
27314;DHT22;14800;48.174;9.798;2022-11-03T01:14:06;8.70;85.20
27314;DHT22;14800;48.174;9.798;2022-11-03T01:16:32;8.70;85.20
27314;DHT22;14800;48.174;9.798;2022-11-03T01:18:58;8.70;85.20
27314;DHT22;14800;48.174;9.798;2022-11-03T01:21:24;8.70;85.20
27314;DHT22;14800;48.174;9.798;2022-11-03T01:23:50;8.70;85.20
27314;DHT22;14800;48.174;9.798;2022-11-03T01:26:16;8.70;85.10
27314;DHT22;14800;48.174;9.798;2022-11-03T01:28:46;8.70;85.20
27314;DHT22;14800;48.174;9.798;2022-11-03T01:31:13;8.60;85.20
27314;DHT22;14800;48.174;9.798;2022-11-03T01:33:40;8.60;85.20
27314;DHT22;14800;48.174;9.798;2022-11-03T01:36:06;8.60;85.50
27314;DHT22;14800;48.174;9.798;2022-11-03T01:38:33;8.60;85.80
27314;DHT22;14800;48.174;9.798;2022-11-03T01:41:00;8.60;85.90
27314;DHT22;14800;48.174;9.798;2022-11-03T01:43:26;8.70;86.00
27314;DHT22;14800;48.174;9.798;2022-11-03T01:46:21;8.70;86.10
27314;DHT22;14800;48.174;9.798;2022-11-03T01:48:54;8.70;86.80
27314;DHT22;14800;48.174;9.798;2022-11-03T01:51:22;8.80;86.30
27314;DHT22;14800;48.174;9.798;2022-11-03T01:53:51;8.80;86.20
27314;DHT22;14800;48.174;9.798;2022-11-03T01:56:19;8.80;86.00
27314;DHT22;14800;48.174;9.798;2022-11-03T01:58:48;8.80;85.50
27314;DHT22;14800;48.174;9.798;2022-11-03T02:01:15;8.80;85.20
27314;DHT22;14800;48.174;9.798;2022-11-03T02:03:45;8.80;85.10
27314;DHT22;14800;48.174;9.798;2022-11-03T02:06:13;8.70;85.20
27314;DHT22;14800;48.174;9.798;2022-11-03T02:08:47;8.70;85.30
27314;DHT22;14800;48.174;9.798;2022-11-03T02:11:14;8.70;85.70
27314;DHT22;14800;48.174;9.798;2022-11-03T02:14:10;8.70;85.50
27314;DHT22;14800;48.174;9.798;2022-11-03T02:16:37;8.60;85.60
27314;DHT22;14800;48.174;9.798;2022-11-03T02:19:07;8.60;85.60
27314;DHT22;14800;48.174;9.798;2022-11-03T02:21:55;8.50;85.90
27314;DHT22;14800;48.174;9.798;2022-11-03T02:24:35;8.50;86.00
27314;DHT22;14800;48.174;9.798;2022-11-03T02:27:04;8.50;86.00
27314;DHT22;14800;48.174;9.798;2022-11-03T02:29:30;8.50;86.00
27314;DHT22;14800;48.174;9.798;2022-11-03T02:32:14;8.40;86.00
27314;DHT22;14800;48.174;9.798;2022-11-03T02:34:53;8.40;86.20
27314;DHT22;14800;48.174;9.798;2022-11-03T02:37:26;8.40;86.10
27314;DHT22;14800;48.174;9.798;2022-11-03T02:40:11;8.30;86.10
27314;DHT22;14800;48.174;9.798;2022-11-03T02:42:40;8.30;86.60
27314;DHT22;14800;48.174;9.798;2022-11-03T02:45:08;8.30;86.70
27314;DHT22;14800;48.174;9.798;2022-11-03T02:47:36;8.30;86.90
27314;DHT22;14800;48.174;9.798;2022-11-03T02:50:05;8.30;87.30
27314;DHT22;14800;48.174;9.798;2022-11-03T02:52:44;8.40;87.40
27314;DHT22;14800;48.174;9.798;2022-11-03T02:55:34;8.40;87.70
27314;DHT22;14800;48.174;9.798;2022-11-03T02:58:20;8.50;88.20
27314;DHT22;14800;48.174;9.798;2022-11-03T03:00:58;8.50;87.60
27314;DHT22;14800;48.174;9.798;2022-11-03T03:03:33;8.50;87.70
27314;DHT22;14800;48.174;9.798;2022-11-03T03:06:09;8.60;87.80
27314;DHT22;14800;48.174;9.798;2022-11-03T03:08:39;8.60;87.70
27314;DHT22;14800;48.174;9.798;2022-11-03T03:11:07;8.60;87.60
27314;DHT22;14800;48.174;9.798;2022-11-03T03:13:35;8.70;87.60
27314;DHT22;14800;48.174;9.798;2022-11-03T03:16:11;8.70;87.60
27314;DHT22;14800;48.174;9.798;2022-11-03T03:18:50;8.80;87.60
27314;DHT22;14800;48.174;9.798;2022-11-03T03:21:25;8.80;87.50
27314;DHT22;14800;48.174;9.798;2022-11-03T03:24:01;8.80;87.10
27314;DHT22;14800;48.174;9.798;2022-11-03T03:26:31;8.80;86.90
27314;DHT22;14800;48.174;9.798;2022-11-03T03:29:00;8.80;87.10
27314;DHT22;14800;48.174;9.798;2022-11-03T03:31:29;8.80;86.70
27314;DHT22;14800;48.174;9.798;2022-11-03T03:33:57;8.80;86.50
27314;DHT22;14800;48.174;9.798;2022-11-03T03:36:25;8.80;86.60
27314;DHT22;14800;48.174;9.798;2022-11-03T03:38:57;8.80;86.50
27314;DHT22;14800;48.174;9.798;2022-11-03T03:41:25;8.80;86.60
27314;DHT22;14800;48.174;9.798;2022-11-03T03:43:55;8.70;86.20
27314;DHT22;14800;48.174;9.798;2022-11-03T03:46:23;8.70;86.40
27314;DHT22;14800;48.174;9.798;2022-11-03T03:48:50;8.70;86.50
27314;DHT22;14800;48.174;9.798;2022-11-03T03:51:19;8.70;86.60
27314;DHT22;14800;48.174;9.798;2022-11-03T03:53:50;8.60;86.60
27314;DHT22;14800;48.174;9.798;2022-11-03T03:56:28;8.60;86.40
27314;DHT22;14800;48.174;9.798;2022-11-03T03:58:54;8.60;86.50
27314;DHT22;14800;48.174;9.798;2022-11-03T04:01:20;8.60;86.40
27314;DHT22;14800;48.174;9.798;2022-11-03T04:03:45;8.60;86.50
27314;DHT22;14800;48.174;9.798;2022-11-03T04:06:11;8.70;86.70
27314;DHT22;14800;48.174;9.798;2022-11-03T04:08:36;8.60;86.70
27314;DHT22;14800;48.174;9.798;2022-11-03T04:11:02;8.70;86.70
27314;DHT22;14800;48.174;9.798;2022-11-03T04:13:46;8.70;86.60
27314;DHT22;14800;48.174;9.798;2022-11-03T04:16:31;8.70;86.30
27314;DHT22;14800;48.174;9.798;2022-11-03T04:19:15;8.70;86.20
27314;DHT22;14800;48.174;9.798;2022-11-03T04:21:59;8.70;86.20
27314;DHT22;14800;48.174;9.798;2022-11-03T04:24:45;8.80;86.20
27314;DHT22;14800;48.174;9.798;2022-11-03T04:29:43;8.80;86.00
27314;DHT22;14800;48.174;9.798;2022-11-03T04:32:17;8.80;85.80
27314;DHT22;14800;48.174;9.798;2022-11-03T04:34:45;8.70;85.90
27314;DHT22;14800;48.174;9.798;2022-11-03T04:37:12;8.80;85.80
27314;DHT22;14800;48.174;9.798;2022-11-03T04:39:38;8.70;85.50
27314;DHT22;14800;48.174;9.798;2022-11-03T04:42:20;8.70;85.40
27314;DHT22;14800;48.174;9.798;2022-11-03T04:44:47;8.70;85.70
27314;DHT22;14800;48.174;9.798;2022-11-03T04:47:15;8.70;85.40
27314;DHT22;14800;48.174;9.798;2022-11-03T04:49:42;8.70;85.30
27314;DHT22;14800;48.174;9.798;2022-11-03T04:52:20;8.70;85.30
27314;DHT22;14800;48.174;9.798;2022-11-03T04:54:49;8.70;85.10
27314;DHT22;14800;48.174;9.798;2022-11-03T04:57:16;8.70;85.00
27314;DHT22;14800;48.174;9.798;2022-11-03T04:59:46;8.70;85.20
27314;DHT22;14800;48.174;9.798;2022-11-03T05:02:15;8.60;85.10
27314;DHT22;14800;48.174;9.798;2022-11-03T05:04:42;8.60;85.00
27314;DHT22;14800;48.174;9.798;2022-11-03T05:09:52;8.60;85.20
27314;DHT22;14800;48.174;9.798;2022-11-03T05:12:18;8.60;85.10
27314;DHT22;14800;48.174;9.798;2022-11-03T05:14:45;8.60;85.00
27314;DHT22;14800;48.174;9.798;2022-11-03T05:17:21;8.60;85.20
27314;DHT22;14800;48.174;9.798;2022-11-03T05:19:59;8.60;85.20
27314;DHT22;14800;48.174;9.798;2022-11-03T05:22:29;8.60;85.10
27314;DHT22;14800;48.174;9.798;2022-11-03T05:24:59;8.60;84.70
27314;DHT22;14800;48.174;9.798;2022-11-03T05:27:25;8.50;84.60
27314;DHT22;14800;48.174;9.798;2022-11-03T05:29:52;8.50;84.90
27314;DHT22;14800;48.174;9.798;2022-11-03T05:32:23;8.50;85.10
27314;DHT22;14800;48.174;9.798;2022-11-03T05:34:50;8.50;85.20
27314;DHT22;14800;48.174;9.798;2022-11-03T05:37:31;8.50;85.30
27314;DHT22;14800;48.174;9.798;2022-11-03T05:40:20;8.50;85.50
27314;DHT22;14800;48.174;9.798;2022-11-03T05:42:54;8.50;85.30
27314;DHT22;14800;48.174;9.798;2022-11-03T05:45:31;8.50;85.30
27314;DHT22;14800;48.174;9.798;2022-11-03T05:47:57;8.50;86.40
27314;DHT22;14800;48.174;9.798;2022-11-03T05:50:27;8.50;85.00
27314;DHT22;14800;48.174;9.798;2022-11-03T05:52:57;8.50;85.10
27314;DHT22;14800;48.174;9.798;2022-11-03T05:55:26;8.50;85.20
27314;DHT22;14800;48.174;9.798;2022-11-03T05:57:59;8.50;85.30
27314;DHT22;14800;48.174;9.798;2022-11-03T06:00:36;8.50;85.00
27314;DHT22;14800;48.174;9.798;2022-11-03T06:03:04;8.50;84.80
27314;DHT22;14800;48.174;9.798;2022-11-03T06:05:30;8.40;84.50
27314;DHT22;14800;48.174;9.798;2022-11-03T06:08:00;8.40;84.60
27314;DHT22;14800;48.174;9.798;2022-11-03T06:10:31;8.30;85.10
27314;DHT22;14800;48.174;9.798;2022-11-03T06:13:01;8.30;85.30
27314;DHT22;14800;48.174;9.798;2022-11-03T06:15:31;8.30;85.50
27314;DHT22;14800;48.174;9.798;2022-11-03T06:17:59;8.30;85.70
27314;DHT22;14800;48.174;9.798;2022-11-03T06:20:25;8.30;85.90
27314;DHT22;14800;48.174;9.798;2022-11-03T06:22:53;8.30;85.90
27314;DHT22;14800;48.174;9.798;2022-11-03T06:27:58;8.40;86.20
27314;DHT22;14800;48.174;9.798;2022-11-03T06:30:32;8.40;86.10
27314;DHT22;14800;48.174;9.798;2022-11-03T06:33:11;8.40;86.70
27314;DHT22;14800;48.174;9.798;2022-11-03T06:35:38;8.40;85.70
27314;DHT22;14800;48.174;9.798;2022-11-03T06:38:11;8.40;85.30
27314;DHT22;14800;48.174;9.798;2022-11-03T06:40:39;8.40;85.20
27314;DHT22;14800;48.174;9.798;2022-11-03T06:43:15;8.40;85.00
27314;DHT22;14800;48.174;9.798;2022-11-03T06:45:49;8.40;85.30
27314;DHT22;14800;48.174;9.798;2022-11-03T06:48:21;8.30;85.50
27314;DHT22;14800;48.174;9.798;2022-11-03T06:50:46;8.30;85.60
27314;DHT22;14800;48.174;9.798;2022-11-03T06:53:19;8.30;85.50
27314;DHT22;14800;48.174;9.798;2022-11-03T06:55:46;8.30;85.70
27314;DHT22;14800;48.174;9.798;2022-11-03T06:58:22;8.30;85.60
27314;DHT22;14800;48.174;9.798;2022-11-03T07:00:48;8.30;85.80
27314;DHT22;14800;48.174;9.798;2022-11-03T07:03:28;8.20;85.60
27314;DHT22;14800;48.174;9.798;2022-11-03T07:06:02;8.20;86.00
27314;DHT22;14800;48.174;9.798;2022-11-03T07:08:42;8.20;85.70
27314;DHT22;14800;48.174;9.798;2022-11-03T07:11:15;8.20;85.90
27314;DHT22;14800;48.174;9.798;2022-11-03T07:13:42;8.20;86.30
27314;DHT22;14800;48.174;9.798;2022-11-03T07:18:52;8.20;86.90
27314;DHT22;14800;48.174;9.798;2022-11-03T07:21:31;8.10;86.40
27314;DHT22;14800;48.174;9.798;2022-11-03T07:24:11;8.20;86.80
27314;DHT22;14800;48.174;9.798;2022-11-03T07:26:37;8.20;86.70
27314;DHT22;14800;48.174;9.798;2022-11-03T07:29:03;8.20;86.80
27314;DHT22;14800;48.174;9.798;2022-11-03T07:31:30;8.20;87.00
27314;DHT22;14800;48.174;9.798;2022-11-03T07:33:57;8.20;87.30
27314;DHT22;14800;48.174;9.798;2022-11-03T07:36:24;8.30;87.30
27314;DHT22;14800;48.174;9.798;2022-11-03T07:38:52;8.30;87.30
27314;DHT22;14800;48.174;9.798;2022-11-03T07:41:21;8.30;87.10
27314;DHT22;14800;48.174;9.798;2022-11-03T07:43:53;8.40;87.10
27314;DHT22;14800;48.174;9.798;2022-11-03T07:46:20;8.40;87.20
27314;DHT22;14800;48.174;9.798;2022-11-03T07:48:48;8.40;87.10
27314;DHT22;14800;48.174;9.798;2022-11-03T07:51:30;8.40;87.10
27314;DHT22;14800;48.174;9.798;2022-11-03T08:01:36;8.50;87.10
27314;DHT22;14800;48.174;9.798;2022-11-03T08:04:16;8.50;86.90
27314;DHT22;14800;48.174;9.798;2022-11-03T08:06:42;8.50;87.20
27314;DHT22;14800;48.174;9.798;2022-11-03T08:09:07;8.50;86.90
27314;DHT22;14800;48.174;9.798;2022-11-03T08:11:34;8.50;87.00
27314;DHT22;14800;48.174;9.798;2022-11-03T08:13:59;8.60;87.10
27314;DHT22;14800;48.174;9.798;2022-11-03T08:16:25;8.60;87.20
27314;DHT22;14800;48.174;9.798;2022-11-03T08:18:50;8.60;87.20
27314;DHT22;14800;48.174;9.798;2022-11-03T08:21:16;8.60;87.30
27314;DHT22;14800;48.174;9.798;2022-11-03T08:23:42;8.60;87.40
27314;DHT22;14800;48.174;9.798;2022-11-03T08:26:07;8.60;87.50
27314;DHT22;14800;48.174;9.798;2022-11-03T08:28:33;8.70;87.60
27314;DHT22;14800;48.174;9.798;2022-11-03T08:30:59;8.70;87.40
27314;DHT22;14800;48.174;9.798;2022-11-03T08:33:30;8.70;87.40
27314;DHT22;14800;48.174;9.798;2022-11-03T08:35:56;8.70;87.70
27314;DHT22;14800;48.174;9.798;2022-11-03T08:38:21;8.70;88.80
27314;DHT22;14800;48.174;9.798;2022-11-03T08:40:47;8.70;88.10
27314;DHT22;14800;48.174;9.798;2022-11-03T08:43:12;8.70;88.00
27314;DHT22;14800;48.174;9.798;2022-11-03T08:45:38;8.80;88.00
27314;DHT22;14800;48.174;9.798;2022-11-03T08:48:03;8.80;87.90
27314;DHT22;14800;48.174;9.798;2022-11-03T08:50:29;8.90;88.00
27314;DHT22;14800;48.174;9.798;2022-11-03T08:52:55;8.90;87.80
27314;DHT22;14800;48.174;9.798;2022-11-03T08:55:20;9.00;87.80
27314;DHT22;14800;48.174;9.798;2022-11-03T08:57:46;9.00;87.70
27314;DHT22;14800;48.174;9.798;2022-11-03T09:00:12;9.00;87.60
27314;DHT22;14800;48.174;9.798;2022-11-03T09:02:38;9.00;87.60
27314;DHT22;14800;48.174;9.798;2022-11-03T09:05:04;9.10;87.80
27314;DHT22;14800;48.174;9.798;2022-11-03T09:07:30;9.10;87.80
27314;DHT22;14800;48.174;9.798;2022-11-03T09:09:56;9.20;88.00
27314;DHT22;14800;48.174;9.798;2022-11-03T09:12:21;9.20;88.00
27314;DHT22;14800;48.174;9.798;2022-11-03T09:14:47;9.30;87.80
27314;DHT22;14800;48.174;9.798;2022-11-03T09:17:12;9.30;87.60
27314;DHT22;14800;48.174;9.798;2022-11-03T09:19:38;9.30;87.60
27314;DHT22;14800;48.174;9.798;2022-11-03T09:22:04;9.40;87.60
27314;DHT22;14800;48.174;9.798;2022-11-03T09:24:29;9.40;87.60
27314;DHT22;14800;48.174;9.798;2022-11-03T09:26:55;9.50;87.50
27314;DHT22;14800;48.174;9.798;2022-11-03T09:29:21;9.50;87.60
27314;DHT22;14800;48.174;9.798;2022-11-03T09:31:46;9.60;87.70
27314;DHT22;14800;48.174;9.798;2022-11-03T09:34:13;9.60;87.60
27314;DHT22;14800;48.174;9.798;2022-11-03T09:36:38;9.60;87.30
27314;DHT22;14800;48.174;9.798;2022-11-03T09:39:04;9.70;87.20
27314;DHT22;14800;48.174;9.798;2022-11-03T09:41:30;9.70;87.10
27314;DHT22;14800;48.174;9.798;2022-11-03T09:43:57;9.70;87.10
27314;DHT22;14800;48.174;9.798;2022-11-03T09:46:24;9.80;87.20
27314;DHT22;14800;48.174;9.798;2022-11-03T09:48:50;9.80;87.10
27314;DHT22;14800;48.174;9.798;2022-11-03T09:51:19;9.80;87.10
27314;DHT22;14800;48.174;9.798;2022-11-03T09:53:45;9.80;87.50
27314;DHT22;14800;48.174;9.798;2022-11-03T09:56:11;9.80;87.50
27314;DHT22;14800;48.174;9.798;2022-11-03T09:58:37;9.80;87.60
27314;DHT22;14800;48.174;9.798;2022-11-03T10:01:03;9.80;87.80
27314;DHT22;14800;48.174;9.798;2022-11-03T10:03:29;9.90;87.90
27314;DHT22;14800;48.174;9.798;2022-11-03T10:05:54;9.90;87.90
27314;DHT22;14800;48.174;9.798;2022-11-03T10:08:26;9.90;88.70
27314;DHT22;14800;48.174;9.798;2022-11-03T10:10:53;10.00;87.90
27314;DHT22;14800;48.174;9.798;2022-11-03T10:16:05;10.10;88.00
27314;DHT22;14800;48.174;9.798;2022-11-03T10:18:32;10.10;87.80
27314;DHT22;14800;48.174;9.798;2022-11-03T10:21:10;10.10;87.60
27314;DHT22;14800;48.174;9.798;2022-11-03T10:23:37;10.10;87.30
27314;DHT22;14800;48.174;9.798;2022-11-03T10:26:14;10.10;87.30
27314;DHT22;14800;48.174;9.798;2022-11-03T10:29:06;10.10;87.50
27314;DHT22;14800;48.174;9.798;2022-11-03T10:34:02;10.10;87.30
27314;DHT22;14800;48.174;9.798;2022-11-03T10:36:30;10.00;87.40
27314;DHT22;14800;48.174;9.798;2022-11-03T10:38:57;10.00;87.80
27314;DHT22;14800;48.174;9.798;2022-11-03T10:41:24;10.00;88.00
27314;DHT22;14800;48.174;9.798;2022-11-03T10:46:40;10.00;88.50
27314;DHT22;14800;48.174;9.798;2022-11-03T10:49:19;10.00;88.20
27314;DHT22;14800;48.174;9.798;2022-11-03T10:51:50;10.10;88.30
27314;DHT22;14800;48.174;9.798;2022-11-03T10:54:18;10.10;88.60
27314;DHT22;14800;48.174;9.798;2022-11-03T10:56:45;10.10;88.60
27314;DHT22;14800;48.174;9.798;2022-11-03T10:59:23;10.20;88.70
27314;DHT22;14800;48.174;9.798;2022-11-03T11:01:51;10.20;88.80
27314;DHT22;14800;48.174;9.798;2022-11-03T11:04:18;10.30;88.60
27314;DHT22;14800;48.174;9.798;2022-11-03T11:06:45;10.40;88.60
27314;DHT22;14800;48.174;9.798;2022-11-03T11:09:13;10.40;88.60
27314;DHT22;14800;48.174;9.798;2022-11-03T11:12:04;10.40;88.60
27314;DHT22;14800;48.174;9.798;2022-11-03T11:17:00;10.60;88.50
27314;DHT22;14800;48.174;9.798;2022-11-03T11:19:27;10.60;88.50
27314;DHT22;14800;48.174;9.798;2022-11-03T11:30:02;10.80;88.90
27314;DHT22;14800;48.174;9.798;2022-11-03T11:37:47;10.90;88.60
27314;DHT22;14800;48.174;9.798;2022-11-03T11:48:31;11.00;88.50
27314;DHT22;14800;48.174;9.798;2022-11-03T11:50:57;11.00;88.10
27314;DHT22;14800;48.174;9.798;2022-11-03T11:53:24;11.00;88.30
27314;DHT22;14800;48.174;9.798;2022-11-03T11:55:57;11.00;88.30
27314;DHT22;14800;48.174;9.798;2022-11-03T12:01:03;11.10;89.20
27314;DHT22;14800;48.174;9.798;2022-11-03T12:03:35;11.10;89.00
27314;DHT22;14800;48.174;9.798;2022-11-03T12:06:02;11.20;88.20
27314;DHT22;14800;48.174;9.798;2022-11-03T12:08:29;11.20;88.10
27314;DHT22;14800;48.174;9.798;2022-11-03T12:11:03;11.20;88.20
27314;DHT22;14800;48.174;9.798;2022-11-03T12:15:59;11.30;88.40
27314;DHT22;14800;48.174;9.798;2022-11-03T12:18:43;11.40;88.50
27314;DHT22;14800;48.174;9.798;2022-11-03T12:21:45;11.40;88.50
27314;DHT22;14800;48.174;9.798;2022-11-03T12:23:58;11.40;88.30
27314;DHT22;14800;48.174;9.798;2022-11-03T12:28:49;11.60;88.00
27314;DHT22;14800;48.174;9.798;2022-11-03T12:31:14;11.60;87.90
27314;DHT22;14800;48.174;9.798;2022-11-03T12:33:40;11.60;87.80
27314;DHT22;14800;48.174;9.798;2022-11-03T12:36:06;11.60;87.80
27314;DHT22;14800;48.174;9.798;2022-11-03T12:38:32;11.70;88.00
27314;DHT22;14800;48.174;9.798;2022-11-03T12:40:57;11.70;87.90
27314;DHT22;14800;48.174;9.798;2022-11-03T12:43:43;11.70;87.80
27314;DHT22;14800;48.174;9.798;2022-11-03T12:46:08;11.80;87.80
27314;DHT22;14800;48.174;9.798;2022-11-03T12:48:34;11.80;87.80
27314;DHT22;14800;48.174;9.798;2022-11-03T12:50:59;11.90;87.60
27314;DHT22;14800;48.174;9.798;2022-11-03T12:53:25;11.90;87.70
27314;DHT22;14800;48.174;9.798;2022-11-03T12:55:50;12.00;87.70
27314;DHT22;14800;48.174;9.798;2022-11-03T12:58:16;12.00;87.70
27314;DHT22;14800;48.174;9.798;2022-11-03T13:00:41;12.10;87.60
27314;DHT22;14800;48.174;9.798;2022-11-03T13:03:07;12.10;87.60
27314;DHT22;14800;48.174;9.798;2022-11-03T13:05:32;12.10;87.80
27314;DHT22;14800;48.174;9.798;2022-11-03T13:07:58;12.10;87.70
27314;DHT22;14800;48.174;9.798;2022-11-03T13:10:24;12.20;87.60
27314;DHT22;14800;48.174;9.798;2022-11-03T13:12:49;12.20;87.40
27314;DHT22;14800;48.174;9.798;2022-11-03T13:15:15;12.20;87.40
27314;DHT22;14800;48.174;9.798;2022-11-03T13:17:41;12.30;87.40
27314;DHT22;14800;48.174;9.798;2022-11-03T13:20:07;12.30;87.30
27314;DHT22;14800;48.174;9.798;2022-11-03T13:22:33;12.30;87.30
27314;DHT22;14800;48.174;9.798;2022-11-03T13:24:58;12.40;87.20
27314;DHT22;14800;48.174;9.798;2022-11-03T13:27:24;12.40;87.10
27314;DHT22;14800;48.174;9.798;2022-11-03T13:29:49;12.50;86.90
27314;DHT22;14800;48.174;9.798;2022-11-03T13:32:15;12.60;86.90
27314;DHT22;14800;48.174;9.798;2022-11-03T13:34:40;12.60;86.90
27314;DHT22;14800;48.174;9.798;2022-11-03T13:37:06;12.60;86.80
27314;DHT22;14800;48.174;9.798;2022-11-03T13:39:31;12.70;86.70
27314;DHT22;14800;48.174;9.798;2022-11-03T13:41:57;12.70;86.40
27314;DHT22;14800;48.174;9.798;2022-11-03T13:44:23;12.80;86.20
27314;DHT22;14800;48.174;9.798;2022-11-03T13:46:48;12.80;85.90
27314;DHT22;14800;48.174;9.798;2022-11-03T13:49:14;12.80;85.90
27314;DHT22;14800;48.174;9.798;2022-11-03T13:51:40;12.80;85.80
27314;DHT22;14800;48.174;9.798;2022-11-03T13:54:06;12.80;85.70
27314;DHT22;14800;48.174;9.798;2022-11-03T13:56:31;12.90;85.60
27314;DHT22;14800;48.174;9.798;2022-11-03T13:58:57;12.80;85.30
27314;DHT22;14800;48.174;9.798;2022-11-03T14:01:22;12.90;85.20
27314;DHT22;14800;48.174;9.798;2022-11-03T14:03:48;12.90;85.20
27314;DHT22;14800;48.174;9.798;2022-11-03T14:06:13;12.90;85.20
27314;DHT22;14800;48.174;9.798;2022-11-03T14:08:39;12.90;85.20
27314;DHT22;14800;48.174;9.798;2022-11-03T14:11:05;12.90;85.20
27314;DHT22;14800;48.174;9.798;2022-11-03T14:13:49;12.90;85.10
27314;DHT22;14800;48.174;9.798;2022-11-03T14:16:14;12.90;85.00
27314;DHT22;14800;48.174;9.798;2022-11-03T14:18:40;12.90;85.00
27314;DHT22;14800;48.174;9.798;2022-11-03T14:21:06;12.90;85.00
27314;DHT22;14800;48.174;9.798;2022-11-03T14:23:31;12.90;85.00
27314;DHT22;14800;48.174;9.798;2022-11-03T14:25:57;12.90;85.00
27314;DHT22;14800;48.174;9.798;2022-11-03T14:28:22;13.00;85.00
27314;DHT22;14800;48.174;9.798;2022-11-03T14:30:48;12.90;85.00
27314;DHT22;14800;48.174;9.798;2022-11-03T14:33:13;12.90;85.00
27314;DHT22;14800;48.174;9.798;2022-11-03T14:35:39;12.90;85.10
27314;DHT22;14800;48.174;9.798;2022-11-03T14:38:04;13.00;85.20
27314;DHT22;14800;48.174;9.798;2022-11-03T14:40:30;12.90;85.20
27314;DHT22;14800;48.174;9.798;2022-11-03T14:43:14;13.00;85.20
27314;DHT22;14800;48.174;9.798;2022-11-03T14:45:40;13.00;85.00
27314;DHT22;14800;48.174;9.798;2022-11-03T14:48:05;13.00;85.00
27314;DHT22;14800;48.174;9.798;2022-11-03T14:50:31;13.00;85.00
27314;DHT22;14800;48.174;9.798;2022-11-03T14:52:56;12.90;85.00
27314;DHT22;14800;48.174;9.798;2022-11-03T14:55:22;12.90;84.80
27314;DHT22;14800;48.174;9.798;2022-11-03T14:57:47;12.80;84.80
27314;DHT22;14800;48.174;9.798;2022-11-03T15:00:13;12.80;84.90
27314;DHT22;14800;48.174;9.798;2022-11-03T15:02:39;12.80;85.00
27314;DHT22;14800;48.174;9.798;2022-11-03T15:05:04;12.80;85.10
27314;DHT22;14800;48.174;9.798;2022-11-03T15:07:30;12.70;85.00
27314;DHT22;14800;48.174;9.798;2022-11-03T15:09:56;12.70;85.20
27314;DHT22;14800;48.174;9.798;2022-11-03T15:12:22;12.60;85.30
27314;DHT22;14800;48.174;9.798;2022-11-03T15:14:48;12.60;85.50
27314;DHT22;14800;48.174;9.798;2022-11-03T15:17:13;12.60;85.50
27314;DHT22;14800;48.174;9.798;2022-11-03T15:19:39;12.50;85.50
27314;DHT22;14800;48.174;9.798;2022-11-03T15:22:05;12.50;85.50
27314;DHT22;14800;48.174;9.798;2022-11-03T15:24:30;12.50;86.40
27314;DHT22;14800;48.174;9.798;2022-11-03T15:26:56;12.40;85.50
27314;DHT22;14800;48.174;9.798;2022-11-03T15:29:21;12.40;85.70
27314;DHT22;14800;48.174;9.798;2022-11-03T15:31:48;12.30;85.70
27314;DHT22;14800;48.174;9.798;2022-11-03T15:34:14;12.20;85.80
27314;DHT22;14800;48.174;9.798;2022-11-03T15:36:40;12.10;86.00
27314;DHT22;14800;48.174;9.798;2022-11-03T15:39:05;12.00;86.40
27314;DHT22;14800;48.174;9.798;2022-11-03T15:41:31;12.00;86.60
27314;DHT22;14800;48.174;9.798;2022-11-03T15:43:56;12.00;86.60
27314;DHT22;14800;48.174;9.798;2022-11-03T15:46:22;12.00;86.70
27314;DHT22;14800;48.174;9.798;2022-11-03T15:48:47;12.00;86.70
27314;DHT22;14800;48.174;9.798;2022-11-03T15:51:13;12.00;86.60
27314;DHT22;14800;48.174;9.798;2022-11-03T15:53:39;12.00;86.60
27314;DHT22;14800;48.174;9.798;2022-11-03T15:56:05;12.00;86.60
27314;DHT22;14800;48.174;9.798;2022-11-03T15:58:31;12.00;86.40
27314;DHT22;14800;48.174;9.798;2022-11-03T16:00:59;12.00;86.50
27314;DHT22;14800;48.174;9.798;2022-11-03T16:03:25;12.00;86.70
27314;DHT22;14800;48.174;9.798;2022-11-03T16:05:51;11.90;86.60
27314;DHT22;14800;48.174;9.798;2022-11-03T16:08:16;11.90;86.60
27314;DHT22;14800;48.174;9.798;2022-11-03T16:10:42;11.90;86.70
27314;DHT22;14800;48.174;9.798;2022-11-03T16:13:07;11.80;86.90
27314;DHT22;14800;48.174;9.798;2022-11-03T16:15:33;11.80;86.90
27314;DHT22;14800;48.174;9.798;2022-11-03T16:17:58;11.80;86.90
27314;DHT22;14800;48.174;9.798;2022-11-03T16:20:28;11.80;87.00
27314;DHT22;14800;48.174;9.798;2022-11-03T16:22:53;11.70;86.90
27314;DHT22;14800;48.174;9.798;2022-11-03T16:25:19;11.70;87.10
27314;DHT22;14800;48.174;9.798;2022-11-03T16:27:44;11.70;87.30
27314;DHT22;14800;48.174;9.798;2022-11-03T16:30:11;11.70;87.40
27314;DHT22;14800;48.174;9.798;2022-11-03T16:32:36;11.70;87.50
27314;DHT22;14800;48.174;9.798;2022-11-03T16:35:02;11.60;87.40
27314;DHT22;14800;48.174;9.798;2022-11-03T16:37:28;11.60;87.50
27314;DHT22;14800;48.174;9.798;2022-11-03T16:39:54;11.60;87.60
27314;DHT22;14800;48.174;9.798;2022-11-03T16:42:19;11.50;87.70
27314;DHT22;14800;48.174;9.798;2022-11-03T16:44:45;11.40;87.80
27314;DHT22;14800;48.174;9.798;2022-11-03T16:47:10;11.40;88.20
27314;DHT22;14800;48.174;9.798;2022-11-03T16:49:36;11.40;88.50
27314;DHT22;14800;48.174;9.798;2022-11-03T16:52:08;11.40;88.60
27314;DHT22;14800;48.174;9.798;2022-11-03T16:54:34;11.40;88.50